sensor_id;sensor_type;location;lat;lon;timestamp;temperature;humidity
42261;DHT22;27926;48.062;7.474;2023-12-20T00:01:41;5.50;99.90
42261;DHT22;27926;48.062;7.474;2023-12-20T00:04:05;5.50;99.90
42261;DHT22;27926;48.062;7.474;2023-12-20T00:06:30;5.50;99.90
42261;DHT22;27926;48.062;7.474;2023-12-20T00:08:55;5.50;99.90
42261;DHT22;27926;48.062;7.474;2023-12-20T00:11:19;5.50;99.90
42261;DHT22;27926;48.062;7.474;2023-12-20T00:13:44;5.50;99.90
42261;DHT22;27926;48.062;7.474;2023-12-20T00:16:09;5.60;99.90
42261;DHT22;27926;48.062;7.474;2023-12-20T00:18:33;5.60;99.90
42261;DHT22;27926;48.062;7.474;2023-12-20T00:20:58;5.60;99.90
42261;DHT22;27926;48.062;7.474;2023-12-20T00:23:23;5.60;99.90
42261;DHT22;27926;48.062;7.474;2023-12-20T00:25:47;5.60;99.90
42261;DHT22;27926;48.062;7.474;2023-12-20T00:28:12;5.60;99.90
42261;DHT22;27926;48.062;7.474;2023-12-20T00:30:36;5.60;99.90
42261;DHT22;27926;48.062;7.474;2023-12-20T00:33:01;5.60;99.90
42261;DHT22;27926;48.062;7.474;2023-12-20T00:35:26;5.60;99.90
42261;DHT22;27926;48.062;7.474;2023-12-20T00:37:51;5.70;99.90
42261;DHT22;27926;48.062;7.474;2023-12-20T00:40:15;5.70;99.90
42261;DHT22;27926;48.062;7.474;2023-12-20T00:42:40;5.70;99.90
42261;DHT22;27926;48.062;7.474;2023-12-20T00:45:04;5.70;99.90
42261;DHT22;27926;48.062;7.474;2023-12-20T00:47:30;5.70;99.90
42261;DHT22;27926;48.062;7.474;2023-12-20T00:49:54;5.70;99.90
42261;DHT22;27926;48.062;7.474;2023-12-20T00:52:19;5.70;99.90
42261;DHT22;27926;48.062;7.474;2023-12-20T00:54:44;5.70;99.90
42261;DHT22;27926;48.062;7.474;2023-12-20T00:57:08;5.70;99.90
42261;DHT22;27926;48.062;7.474;2023-12-20T00:59:33;5.70;99.90
42261;DHT22;27926;48.062;7.474;2023-12-20T01:01:57;5.80;99.90
42261;DHT22;27926;48.062;7.474;2023-12-20T01:04:22;5.70;99.90
42261;DHT22;27926;48.062;7.474;2023-12-20T01:06:46;5.80;99.90
42261;DHT22;27926;48.062;7.474;2023-12-20T01:09:11;5.70;99.90
42261;DHT22;27926;48.062;7.474;2023-12-20T01:11:35;5.70;99.90
42261;DHT22;27926;48.062;7.474;2023-12-20T01:14:00;5.80;99.90
42261;DHT22;27926;48.062;7.474;2023-12-20T01:16:24;5.80;99.90
42261;DHT22;27926;48.062;7.474;2023-12-20T01:18:49;5.80;99.90
42261;DHT22;27926;48.062;7.474;2023-12-20T01:21:13;5.90;99.90
42261;DHT22;27926;48.062;7.474;2023-12-20T01:23:38;5.80;99.90
42261;DHT22;27926;48.062;7.474;2023-12-20T01:26:02;6.00;99.90
42261;DHT22;27926;48.062;7.474;2023-12-20T01:28:29;5.80;99.90
42261;DHT22;27926;48.062;7.474;2023-12-20T01:30:54;5.90;99.90
42261;DHT22;27926;48.062;7.474;2023-12-20T01:33:18;5.70;99.90
42261;DHT22;27926;48.062;7.474;2023-12-20T01:35:43;5.70;99.90
42261;DHT22;27926;48.062;7.474;2023-12-20T01:38:07;5.90;99.90
42261;DHT22;27926;48.062;7.474;2023-12-20T01:40:32;5.90;99.90
42261;DHT22;27926;48.062;7.474;2023-12-20T01:43:09;5.80;99.90
42261;DHT22;27926;48.062;7.474;2023-12-20T01:45:34;5.70;99.90
42261;DHT22;27926;48.062;7.474;2023-12-20T01:47:58;5.80;99.90
42261;DHT22;27926;48.062;7.474;2023-12-20T01:50:23;5.80;99.90
42261;DHT22;27926;48.062;7.474;2023-12-20T01:52:48;6.00;99.90
42261;DHT22;27926;48.062;7.474;2023-12-20T01:55:12;5.90;99.90
42261;DHT22;27926;48.062;7.474;2023-12-20T01:57:39;5.80;99.90
42261;DHT22;27926;48.062;7.474;2023-12-20T02:00:04;5.80;99.90
42261;DHT22;27926;48.062;7.474;2023-12-20T02:02:29;5.80;99.90
42261;DHT22;27926;48.062;7.474;2023-12-20T02:04:54;5.90;99.90
42261;DHT22;27926;48.062;7.474;2023-12-20T02:07:19;5.80;99.90
42261;DHT22;27926;48.062;7.474;2023-12-20T02:09:44;5.80;99.90
42261;DHT22;27926;48.062;7.474;2023-12-20T02:12:09;5.80;99.90
42261;DHT22;27926;48.062;7.474;2023-12-20T02:14:33;5.80;99.90
42261;DHT22;27926;48.062;7.474;2023-12-20T02:16:58;5.70;99.90
42261;DHT22;27926;48.062;7.474;2023-12-20T02:19:22;5.70;99.90
42261;DHT22;27926;48.062;7.474;2023-12-20T02:21:47;5.70;99.90
42261;DHT22;27926;48.062;7.474;2023-12-20T02:24:11;5.70;99.90
42261;DHT22;27926;48.062;7.474;2023-12-20T02:26:36;5.70;99.90
42261;DHT22;27926;48.062;7.474;2023-12-20T02:29:00;5.70;99.90
42261;DHT22;27926;48.062;7.474;2023-12-20T02:31:25;5.80;99.90
42261;DHT22;27926;48.062;7.474;2023-12-20T02:33:49;5.80;99.90
42261;DHT22;27926;48.062;7.474;2023-12-20T02:36:14;6.00;99.90
42261;DHT22;27926;48.062;7.474;2023-12-20T02:38:38;5.80;99.90
42261;DHT22;27926;48.062;7.474;2023-12-20T02:41:03;5.80;99.90
42261;DHT22;27926;48.062;7.474;2023-12-20T02:43:27;5.80;99.90
42261;DHT22;27926;48.062;7.474;2023-12-20T02:45:52;6.00;99.90
42261;DHT22;27926;48.062;7.474;2023-12-20T02:48:17;5.90;99.90
42261;DHT22;27926;48.062;7.474;2023-12-20T02:50:41;5.90;99.90
42261;DHT22;27926;48.062;7.474;2023-12-20T02:53:06;5.90;99.90
42261;DHT22;27926;48.062;7.474;2023-12-20T02:55:30;5.90;99.90
42261;DHT22;27926;48.062;7.474;2023-12-20T02:57:55;5.90;99.90
42261;DHT22;27926;48.062;7.474;2023-12-20T03:00:19;5.90;99.90
42261;DHT22;27926;48.062;7.474;2023-12-20T03:02:44;5.90;99.90
42261;DHT22;27926;48.062;7.474;2023-12-20T03:05:08;5.90;99.90
42261;DHT22;27926;48.062;7.474;2023-12-20T03:07:33;5.90;99.90
42261;DHT22;27926;48.062;7.474;2023-12-20T03:09:57;5.90;99.90
42261;DHT22;27926;48.062;7.474;2023-12-20T03:12:22;5.90;99.90
42261;DHT22;27926;48.062;7.474;2023-12-20T03:14:47;6.10;99.90
42261;DHT22;27926;48.062;7.474;2023-12-20T03:17:12;5.90;99.90
42261;DHT22;27926;48.062;7.474;2023-12-20T03:19:36;5.90;99.90
42261;DHT22;27926;48.062;7.474;2023-12-20T03:22:01;5.90;99.90
42261;DHT22;27926;48.062;7.474;2023-12-20T03:24:25;6.00;99.90
42261;DHT22;27926;48.062;7.474;2023-12-20T03:26:50;6.00;99.90
42261;DHT22;27926;48.062;7.474;2023-12-20T03:29:16;6.00;99.90
42261;DHT22;27926;48.062;7.474;2023-12-20T03:31:40;6.00;99.90
42261;DHT22;27926;48.062;7.474;2023-12-20T03:34:05;6.00;99.90
42261;DHT22;27926;48.062;7.474;2023-12-20T03:36:29;6.20;99.90
42261;DHT22;27926;48.062;7.474;2023-12-20T03:38:54;6.00;99.90
42261;DHT22;27926;48.062;7.474;2023-12-20T03:41:18;6.00;99.90
42261;DHT22;27926;48.062;7.474;2023-12-20T03:43:43;6.00;99.90
42261;DHT22;27926;48.062;7.474;2023-12-20T03:46:08;6.00;99.90
42261;DHT22;27926;48.062;7.474;2023-12-20T03:48:32;6.00;99.90
42261;DHT22;27926;48.062;7.474;2023-12-20T03:50:57;6.00;99.90
42261;DHT22;27926;48.062;7.474;2023-12-20T03:53:21;6.00;99.90
42261;DHT22;27926;48.062;7.474;2023-12-20T03:55:46;6.00;99.90
42261;DHT22;27926;48.062;7.474;2023-12-20T03:58:12;6.00;99.90
42261;DHT22;27926;48.062;7.474;2023-12-20T04:00:36;6.10;99.90
42261;DHT22;27926;48.062;7.474;2023-12-20T04:03:01;6.00;99.90
42261;DHT22;27926;48.062;7.474;2023-12-20T04:05:25;6.00;99.90
42261;DHT22;27926;48.062;7.474;2023-12-20T04:07:50;6.00;99.90
42261;DHT22;27926;48.062;7.474;2023-12-20T04:10:14;6.00;99.90
42261;DHT22;27926;48.062;7.474;2023-12-20T04:12:39;6.00;99.90
42261;DHT22;27926;48.062;7.474;2023-12-20T04:15:03;6.00;99.90
42261;DHT22;27926;48.062;7.474;2023-12-20T04:17:33;6.00;99.90
42261;DHT22;27926;48.062;7.474;2023-12-20T04:19:57;6.10;99.90
42261;DHT22;27926;48.062;7.474;2023-12-20T04:22:22;6.00;99.90
42261;DHT22;27926;48.062;7.474;2023-12-20T04:24:46;6.00;99.90
42261;DHT22;27926;48.062;7.474;2023-12-20T04:27:11;6.00;99.90
42261;DHT22;27926;48.062;7.474;2023-12-20T04:29:36;6.10;99.90
42261;DHT22;27926;48.062;7.474;2023-12-20T04:32:00;6.00;99.90
42261;DHT22;27926;48.062;7.474;2023-12-20T04:34:25;5.90;99.90
42261;DHT22;27926;48.062;7.474;2023-12-20T04:36:50;6.00;99.90
42261;DHT22;27926;48.062;7.474;2023-12-20T04:39:14;6.00;99.90
42261;DHT22;27926;48.062;7.474;2023-12-20T04:41:39;6.00;99.90
42261;DHT22;27926;48.062;7.474;2023-12-20T04:44:03;6.20;99.90
42261;DHT22;27926;48.062;7.474;2023-12-20T04:46:28;6.00;99.90
42261;DHT22;27926;48.062;7.474;2023-12-20T04:48:52;6.00;99.90
42261;DHT22;27926;48.062;7.474;2023-12-20T04:51:17;6.00;99.90
42261;DHT22;27926;48.062;7.474;2023-12-20T04:53:42;6.20;99.90
42261;DHT22;27926;48.062;7.474;2023-12-20T04:56:06;6.00;99.90
42261;DHT22;27926;48.062;7.474;2023-12-20T04:58:31;6.10;99.90
42261;DHT22;27926;48.062;7.474;2023-12-20T05:00:55;6.00;99.90
42261;DHT22;27926;48.062;7.474;2023-12-20T05:03:20;6.20;99.90
42261;DHT22;27926;48.062;7.474;2023-12-20T05:05:45;6.00;99.90
42261;DHT22;27926;48.062;7.474;2023-12-20T05:08:09;6.00;99.90
42261;DHT22;27926;48.062;7.474;2023-12-20T05:10:34;6.00;99.90
42261;DHT22;27926;48.062;7.474;2023-12-20T05:12:59;6.00;99.90
42261;DHT22;27926;48.062;7.474;2023-12-20T05:15:23;6.00;99.90
42261;DHT22;27926;48.062;7.474;2023-12-20T05:17:48;5.90;99.90
42261;DHT22;27926;48.062;7.474;2023-12-20T05:20:12;5.90;99.90
42261;DHT22;27926;48.062;7.474;2023-12-20T05:22:37;5.80;99.90
42261;DHT22;27926;48.062;7.474;2023-12-20T05:25:01;5.80;99.90
42261;DHT22;27926;48.062;7.474;2023-12-20T05:27:26;5.80;99.90
42261;DHT22;27926;48.062;7.474;2023-12-20T05:29:50;5.80;99.90
42261;DHT22;27926;48.062;7.474;2023-12-20T05:32:15;5.80;99.90
42261;DHT22;27926;48.062;7.474;2023-12-20T05:34:39;5.80;99.90
42261;DHT22;27926;48.062;7.474;2023-12-20T05:37:04;5.90;99.90
42261;DHT22;27926;48.062;7.474;2023-12-20T05:39:28;5.90;99.90
42261;DHT22;27926;48.062;7.474;2023-12-20T05:41:53;5.80;99.90
42261;DHT22;27926;48.062;7.474;2023-12-20T05:44:17;5.90;99.90
42261;DHT22;27926;48.062;7.474;2023-12-20T05:46:42;5.90;99.90
42261;DHT22;27926;48.062;7.474;2023-12-20T05:49:06;5.80;99.90
42261;DHT22;27926;48.062;7.474;2023-12-20T05:51:31;5.80;99.90
42261;DHT22;27926;48.062;7.474;2023-12-20T05:53:55;5.80;99.90
42261;DHT22;27926;48.062;7.474;2023-12-20T05:56:20;5.90;99.90
42261;DHT22;27926;48.062;7.474;2023-12-20T05:58:44;5.80;99.90
42261;DHT22;27926;48.062;7.474;2023-12-20T06:01:09;5.80;99.90
42261;DHT22;27926;48.062;7.474;2023-12-20T06:03:34;5.70;99.90
42261;DHT22;27926;48.062;7.474;2023-12-20T06:05:58;5.80;99.90
42261;DHT22;27926;48.062;7.474;2023-12-20T06:08:24;5.70;99.90
42261;DHT22;27926;48.062;7.474;2023-12-20T06:10:49;5.70;99.90
42261;DHT22;27926;48.062;7.474;2023-12-20T06:13:13;5.70;99.90
42261;DHT22;27926;48.062;7.474;2023-12-20T06:15:38;5.70;99.90
42261;DHT22;27926;48.062;7.474;2023-12-20T06:18:02;5.70;99.90
42261;DHT22;27926;48.062;7.474;2023-12-20T06:20:27;5.50;99.90
42261;DHT22;27926;48.062;7.474;2023-12-20T06:22:52;5.60;99.90
42261;DHT22;27926;48.062;7.474;2023-12-20T06:25:16;5.40;99.90
42261;DHT22;27926;48.062;7.474;2023-12-20T06:27:41;5.50;99.90
42261;DHT22;27926;48.062;7.474;2023-12-20T06:30:05;5.40;99.90
42261;DHT22;27926;48.062;7.474;2023-12-20T06:32:30;5.10;99.90
42261;DHT22;27926;48.062;7.474;2023-12-20T06:34:55;5.10;99.90
42261;DHT22;27926;48.062;7.474;2023-12-20T06:37:19;5.00;99.90
42261;DHT22;27926;48.062;7.474;2023-12-20T06:39:44;5.00;99.90
42261;DHT22;27926;48.062;7.474;2023-12-20T06:42:08;5.00;99.90
42261;DHT22;27926;48.062;7.474;2023-12-20T06:44:33;5.00;99.90
42261;DHT22;27926;48.062;7.474;2023-12-20T06:46:58;5.00;99.90
42261;DHT22;27926;48.062;7.474;2023-12-20T06:49:23;5.10;99.90
42261;DHT22;27926;48.062;7.474;2023-12-20T06:51:47;5.20;99.90
42261;DHT22;27926;48.062;7.474;2023-12-20T06:54:12;5.00;99.90
42261;DHT22;27926;48.062;7.474;2023-12-20T06:56:36;5.10;99.90
42261;DHT22;27926;48.062;7.474;2023-12-20T06:59:01;5.10;99.90
42261;DHT22;27926;48.062;7.474;2023-12-20T07:01:25;5.20;99.90
42261;DHT22;27926;48.062;7.474;2023-12-20T07:03:50;5.10;99.90
42261;DHT22;27926;48.062;7.474;2023-12-20T07:06:16;5.10;99.90
42261;DHT22;27926;48.062;7.474;2023-12-20T07:08:41;5.00;99.90
42261;DHT22;27926;48.062;7.474;2023-12-20T07:11:05;5.10;99.90
42261;DHT22;27926;48.062;7.474;2023-12-20T07:13:30;5.00;99.90
42261;DHT22;27926;48.062;7.474;2023-12-20T07:15:54;4.90;99.90
42261;DHT22;27926;48.062;7.474;2023-12-20T07:18:19;4.90;99.90
42261;DHT22;27926;48.062;7.474;2023-12-20T07:20:43;4.90;99.90
42261;DHT22;27926;48.062;7.474;2023-12-20T07:23:08;4.80;99.90
42261;DHT22;27926;48.062;7.474;2023-12-20T07:25:33;4.80;99.90
42261;DHT22;27926;48.062;7.474;2023-12-20T07:27:57;4.80;99.90
42261;DHT22;27926;48.062;7.474;2023-12-20T07:30:22;4.70;99.90
42261;DHT22;27926;48.062;7.474;2023-12-20T07:32:46;4.70;99.90
42261;DHT22;27926;48.062;7.474;2023-12-20T07:35:11;4.60;99.90
42261;DHT22;27926;48.062;7.474;2023-12-20T07:37:36;4.80;99.90
42261;DHT22;27926;48.062;7.474;2023-12-20T07:40:00;5.10;99.90
42261;DHT22;27926;48.062;7.474;2023-12-20T07:42:25;4.60;99.90
42261;DHT22;27926;48.062;7.474;2023-12-20T07:44:49;4.70;99.90
42261;DHT22;27926;48.062;7.474;2023-12-20T07:47:14;5.00;99.90
42261;DHT22;27926;48.062;7.474;2023-12-20T07:49:41;5.20;99.90
42261;DHT22;27926;48.062;7.474;2023-12-20T07:52:05;5.10;99.90
42261;DHT22;27926;48.062;7.474;2023-12-20T07:54:30;5.20;99.90
42261;DHT22;27926;48.062;7.474;2023-12-20T07:56:55;5.40;99.90
42261;DHT22;27926;48.062;7.474;2023-12-20T07:59:19;5.60;99.90
42261;DHT22;27926;48.062;7.474;2023-12-20T08:01:44;5.70;99.90
42261;DHT22;27926;48.062;7.474;2023-12-20T08:04:08;5.90;99.90
42261;DHT22;27926;48.062;7.474;2023-12-20T08:06:33;5.90;99.90
42261;DHT22;27926;48.062;7.474;2023-12-20T08:08:57;6.00;99.90
42261;DHT22;27926;48.062;7.474;2023-12-20T08:11:22;6.30;99.90
42261;DHT22;27926;48.062;7.474;2023-12-20T08:13:46;6.10;99.90
42261;DHT22;27926;48.062;7.474;2023-12-20T08:16:11;6.10;99.90
42261;DHT22;27926;48.062;7.474;2023-12-20T08:18:37;6.30;99.90
42261;DHT22;27926;48.062;7.474;2023-12-20T08:21:02;6.50;99.90
42261;DHT22;27926;48.062;7.474;2023-12-20T08:23:26;6.60;99.90
42261;DHT22;27926;48.062;7.474;2023-12-20T08:25:51;6.70;99.90
42261;DHT22;27926;48.062;7.474;2023-12-20T08:28:15;6.80;99.90
42261;DHT22;27926;48.062;7.474;2023-12-20T08:30:40;6.80;99.90
42261;DHT22;27926;48.062;7.474;2023-12-20T08:33:05;6.90;99.90
42261;DHT22;27926;48.062;7.474;2023-12-20T08:35:32;6.90;99.90
42261;DHT22;27926;48.062;7.474;2023-12-20T08:37:56;7.00;99.90
42261;DHT22;27926;48.062;7.474;2023-12-20T08:40:21;7.10;99.90
42261;DHT22;27926;48.062;7.474;2023-12-20T08:42:45;7.10;99.90
42261;DHT22;27926;48.062;7.474;2023-12-20T08:45:10;7.10;99.90
42261;DHT22;27926;48.062;7.474;2023-12-20T08:47:34;7.10;99.90
42261;DHT22;27926;48.062;7.474;2023-12-20T08:49:59;7.00;99.90
42261;DHT22;27926;48.062;7.474;2023-12-20T08:52:24;6.90;99.90
42261;DHT22;27926;48.062;7.474;2023-12-20T08:54:49;6.90;99.90
42261;DHT22;27926;48.062;7.474;2023-12-20T08:57:22;6.90;99.90
42261;DHT22;27926;48.062;7.474;2023-12-20T08:59:47;8.00;99.90
42261;DHT22;27926;48.062;7.474;2023-12-20T09:02:12;6.90;99.90
42261;DHT22;27926;48.062;7.474;2023-12-20T09:04:37;6.90;99.90
42261;DHT22;27926;48.062;7.474;2023-12-20T09:07:01;6.90;99.90
42261;DHT22;27926;48.062;7.474;2023-12-20T09:09:26;6.90;99.90
42261;DHT22;27926;48.062;7.474;2023-12-20T09:11:50;6.90;99.90
42261;DHT22;27926;48.062;7.474;2023-12-20T09:14:15;6.90;99.90
42261;DHT22;27926;48.062;7.474;2023-12-20T09:16:40;6.90;99.90
42261;DHT22;27926;48.062;7.474;2023-12-20T09:19:04;7.00;99.90
42261;DHT22;27926;48.062;7.474;2023-12-20T09:21:29;6.90;99.90
42261;DHT22;27926;48.062;7.474;2023-12-20T09:23:53;6.90;99.90
42261;DHT22;27926;48.062;7.474;2023-12-20T09:26:18;6.90;99.90
42261;DHT22;27926;48.062;7.474;2023-12-20T09:28:42;7.00;99.90
42261;DHT22;27926;48.062;7.474;2023-12-20T09:31:07;7.00;99.90
42261;DHT22;27926;48.062;7.474;2023-12-20T09:33:32;7.00;99.90
42261;DHT22;27926;48.062;7.474;2023-12-20T09:35:56;7.00;99.90
42261;DHT22;27926;48.062;7.474;2023-12-20T09:38:21;7.10;99.90
42261;DHT22;27926;48.062;7.474;2023-12-20T09:40:46;7.10;99.90
42261;DHT22;27926;48.062;7.474;2023-12-20T09:43:13;7.10;99.90
42261;DHT22;27926;48.062;7.474;2023-12-20T09:45:38;7.10;99.90
42261;DHT22;27926;48.062;7.474;2023-12-20T09:48:05;7.20;99.90
42261;DHT22;27926;48.062;7.474;2023-12-20T09:50:30;7.20;99.90
42261;DHT22;27926;48.062;7.474;2023-12-20T09:52:56;7.20;99.90
42261;DHT22;27926;48.062;7.474;2023-12-20T09:55:23;7.30;99.90
42261;DHT22;27926;48.062;7.474;2023-12-20T09:57:49;7.30;99.90
42261;DHT22;27926;48.062;7.474;2023-12-20T10:00:14;7.40;99.90
42261;DHT22;27926;48.062;7.474;2023-12-20T10:02:40;7.40;99.90
42261;DHT22;27926;48.062;7.474;2023-12-20T10:05:06;7.50;99.90
42261;DHT22;27926;48.062;7.474;2023-12-20T10:07:35;7.50;99.90
42261;DHT22;27926;48.062;7.474;2023-12-20T10:10:00;7.50;99.90
42261;DHT22;27926;48.062;7.474;2023-12-20T10:12:26;7.60;99.90
42261;DHT22;27926;48.062;7.474;2023-12-20T10:14:50;7.60;99.90
42261;DHT22;27926;48.062;7.474;2023-12-20T10:17:15;7.70;99.90
42261;DHT22;27926;48.062;7.474;2023-12-20T10:19:43;7.70;99.90
42261;DHT22;27926;48.062;7.474;2023-12-20T10:22:07;7.70;99.90
42261;DHT22;27926;48.062;7.474;2023-12-20T10:24:32;7.80;99.90
42261;DHT22;27926;48.062;7.474;2023-12-20T10:27:06;7.80;99.90
42261;DHT22;27926;48.062;7.474;2023-12-20T10:29:34;7.80;99.90
42261;DHT22;27926;48.062;7.474;2023-12-20T10:31:59;7.80;99.90
42261;DHT22;27926;48.062;7.474;2023-12-20T10:34:24;7.80;99.90
42261;DHT22;27926;48.062;7.474;2023-12-20T10:36:48;7.80;99.90
42261;DHT22;27926;48.062;7.474;2023-12-20T10:39:13;7.90;99.90
42261;DHT22;27926;48.062;7.474;2023-12-20T10:41:38;7.90;99.90
42261;DHT22;27926;48.062;7.474;2023-12-20T10:44:05;7.90;99.90
42261;DHT22;27926;48.062;7.474;2023-12-20T10:46:30;7.90;99.90
42261;DHT22;27926;48.062;7.474;2023-12-20T10:48:55;7.90;99.90
42261;DHT22;27926;48.062;7.474;2023-12-20T10:51:20;8.00;99.90
42261;DHT22;27926;48.062;7.474;2023-12-20T10:53:47;8.10;99.90
42261;DHT22;27926;48.062;7.474;2023-12-20T10:56:14;8.20;99.90
42261;DHT22;27926;48.062;7.474;2023-12-20T10:58:39;8.20;99.90
42261;DHT22;27926;48.062;7.474;2023-12-20T11:01:06;8.10;99.90
42261;DHT22;27926;48.062;7.474;2023-12-20T11:03:34;8.00;99.90
42261;DHT22;27926;48.062;7.474;2023-12-20T11:06:01;8.00;99.90
42261;DHT22;27926;48.062;7.474;2023-12-20T11:08:30;8.00;99.90
42261;DHT22;27926;48.062;7.474;2023-12-20T11:11:03;7.90;99.90
42261;DHT22;27926;48.062;7.474;2023-12-20T11:16:20;7.90;99.90
42261;DHT22;27926;48.062;7.474;2023-12-20T11:18:44;8.10;99.90
42261;DHT22;27926;48.062;7.474;2023-12-20T11:21:10;8.10;99.90
42261;DHT22;27926;48.062;7.474;2023-12-20T11:23:35;8.10;99.90
42261;DHT22;27926;48.062;7.474;2023-12-20T11:25:59;8.20;99.90
42261;DHT22;27926;48.062;7.474;2023-12-20T11:28:26;8.30;99.90
42261;DHT22;27926;48.062;7.474;2023-12-20T11:30:54;8.40;99.90
42261;DHT22;27926;48.062;7.474;2023-12-20T11:33:22;8.50;99.90
42261;DHT22;27926;48.062;7.474;2023-12-20T11:35:47;8.70;99.90
42261;DHT22;27926;48.062;7.474;2023-12-20T11:38:12;8.80;99.90
42261;DHT22;27926;48.062;7.474;2023-12-20T11:40:37;8.90;99.90
42261;DHT22;27926;48.062;7.474;2023-12-20T11:43:02;8.90;99.90
42261;DHT22;27926;48.062;7.474;2023-12-20T11:45:26;9.00;99.90
42261;DHT22;27926;48.062;7.474;2023-12-20T11:47:52;9.10;99.90
42261;DHT22;27926;48.062;7.474;2023-12-20T11:50:19;9.30;99.90
42261;DHT22;27926;48.062;7.474;2023-12-20T11:52:44;9.30;99.90
42261;DHT22;27926;48.062;7.474;2023-12-20T11:55:08;9.40;99.90
42261;DHT22;27926;48.062;7.474;2023-12-20T11:57:33;9.50;99.90
42261;DHT22;27926;48.062;7.474;2023-12-20T11:59:58;9.60;99.90
42261;DHT22;27926;48.062;7.474;2023-12-20T12:02:22;9.50;99.90
42261;DHT22;27926;48.062;7.474;2023-12-20T12:04:48;9.40;99.90
42261;DHT22;27926;48.062;7.474;2023-12-20T12:07:13;9.30;99.90
42261;DHT22;27926;48.062;7.474;2023-12-20T12:09:37;9.20;99.90
42261;DHT22;27926;48.062;7.474;2023-12-20T12:12:02;9.10;99.90
42261;DHT22;27926;48.062;7.474;2023-12-20T12:14:27;8.90;99.90
42261;DHT22;27926;48.062;7.474;2023-12-20T12:16:51;8.80;99.90
42261;DHT22;27926;48.062;7.474;2023-12-20T12:19:23;8.80;99.90
42261;DHT22;27926;48.062;7.474;2023-12-20T12:21:49;8.80;99.90
42261;DHT22;27926;48.062;7.474;2023-12-20T12:24:13;8.80;99.90
42261;DHT22;27926;48.062;7.474;2023-12-20T12:26:38;8.80;99.90
42261;DHT22;27926;48.062;7.474;2023-12-20T12:29:02;8.70;99.90
42261;DHT22;27926;48.062;7.474;2023-12-20T12:31:27;8.60;99.90
42261;DHT22;27926;48.062;7.474;2023-12-20T12:33:52;8.60;99.90
42261;DHT22;27926;48.062;7.474;2023-12-20T12:36:16;8.50;99.90
42261;DHT22;27926;48.062;7.474;2023-12-20T12:38:42;8.50;99.90
42261;DHT22;27926;48.062;7.474;2023-12-20T12:41:06;8.40;99.90
42261;DHT22;27926;48.062;7.474;2023-12-20T12:43:31;8.40;99.90
42261;DHT22;27926;48.062;7.474;2023-12-20T12:45:58;8.40;99.90
42261;DHT22;27926;48.062;7.474;2023-12-20T12:48:23;8.40;99.90
42261;DHT22;27926;48.062;7.474;2023-12-20T12:50:47;8.40;99.90
42261;DHT22;27926;48.062;7.474;2023-12-20T12:53:12;8.40;99.90
42261;DHT22;27926;48.062;7.474;2023-12-20T12:55:36;8.30;99.90
42261;DHT22;27926;48.062;7.474;2023-12-20T12:58:01;8.30;99.90
42261;DHT22;27926;48.062;7.474;2023-12-20T13:00:25;8.20;99.90
42261;DHT22;27926;48.062;7.474;2023-12-20T13:02:50;8.20;99.90
42261;DHT22;27926;48.062;7.474;2023-12-20T13:05:16;8.20;99.90
42261;DHT22;27926;48.062;7.474;2023-12-20T13:07:42;8.20;99.90
42261;DHT22;27926;48.062;7.474;2023-12-20T13:10:09;8.30;99.90
42261;DHT22;27926;48.062;7.474;2023-12-20T13:12:35;8.30;99.90
42261;DHT22;27926;48.062;7.474;2023-12-20T13:14:59;8.40;99.90
42261;DHT22;27926;48.062;7.474;2023-12-20T13:17:24;8.40;99.90
42261;DHT22;27926;48.062;7.474;2023-12-20T13:19:48;8.50;99.90
42261;DHT22;27926;48.062;7.474;2023-12-20T13:22:14;8.50;99.90
42261;DHT22;27926;48.062;7.474;2023-12-20T13:24:38;8.50;99.90
42261;DHT22;27926;48.062;7.474;2023-12-20T13:27:03;8.50;99.90
42261;DHT22;27926;48.062;7.474;2023-12-20T13:29:27;8.50;99.90
42261;DHT22;27926;48.062;7.474;2023-12-20T13:31:52;8.50;99.90
42261;DHT22;27926;48.062;7.474;2023-12-20T13:34:16;8.50;99.90
42261;DHT22;27926;48.062;7.474;2023-12-20T13:36:41;8.50;99.90
42261;DHT22;27926;48.062;7.474;2023-12-20T13:39:07;8.50;99.90
42261;DHT22;27926;48.062;7.474;2023-12-20T13:41:32;8.50;99.90
42261;DHT22;27926;48.062;7.474;2023-12-20T13:43:56;8.60;99.90
42261;DHT22;27926;48.062;7.474;2023-12-20T13:46:21;8.60;99.90
42261;DHT22;27926;48.062;7.474;2023-12-20T13:48:45;8.60;99.90
42261;DHT22;27926;48.062;7.474;2023-12-20T13:51:10;8.60;99.90
42261;DHT22;27926;48.062;7.474;2023-12-20T13:53:34;8.50;99.90
42261;DHT22;27926;48.062;7.474;2023-12-20T13:55:59;8.50;99.90
42261;DHT22;27926;48.062;7.474;2023-12-20T13:58:24;8.40;99.90
42261;DHT22;27926;48.062;7.474;2023-12-20T14:00:48;8.40;99.90
42261;DHT22;27926;48.062;7.474;2023-12-20T14:03:13;8.50;99.90
42261;DHT22;27926;48.062;7.474;2023-12-20T14:05:37;8.60;99.90
42261;DHT22;27926;48.062;7.474;2023-12-20T14:08:02;8.60;99.90
42261;DHT22;27926;48.062;7.474;2023-12-20T14:10:26;8.60;99.90
42261;DHT22;27926;48.062;7.474;2023-12-20T14:12:51;8.60;99.90
42261;DHT22;27926;48.062;7.474;2023-12-20T14:15:16;8.50;99.90
42261;DHT22;27926;48.062;7.474;2023-12-20T14:17:40;8.50;99.90
42261;DHT22;27926;48.062;7.474;2023-12-20T14:20:06;8.40;99.90
42261;DHT22;27926;48.062;7.474;2023-12-20T14:22:31;8.40;99.90
42261;DHT22;27926;48.062;7.474;2023-12-20T14:24:56;8.40;99.90
42261;DHT22;27926;48.062;7.474;2023-12-20T14:27:21;8.40;99.90
42261;DHT22;27926;48.062;7.474;2023-12-20T14:29:48;8.40;99.90
42261;DHT22;27926;48.062;7.474;2023-12-20T14:32:13;8.40;99.90
42261;DHT22;27926;48.062;7.474;2023-12-20T14:34:39;8.40;99.90
42261;DHT22;27926;48.062;7.474;2023-12-20T14:37:04;8.30;99.90
42261;DHT22;27926;48.062;7.474;2023-12-20T14:39:28;8.30;99.90
42261;DHT22;27926;48.062;7.474;2023-12-20T14:41:53;8.20;99.90
42261;DHT22;27926;48.062;7.474;2023-12-20T14:44:18;8.10;99.90
42261;DHT22;27926;48.062;7.474;2023-12-20T14:46:43;8.00;99.90
42261;DHT22;27926;48.062;7.474;2023-12-20T14:49:07;7.90;99.90
42261;DHT22;27926;48.062;7.474;2023-12-20T14:51:32;7.80;99.90
42261;DHT22;27926;48.062;7.474;2023-12-20T14:53:56;7.70;99.90
42261;DHT22;27926;48.062;7.474;2023-12-20T14:56:25;7.70;99.90
42261;DHT22;27926;48.062;7.474;2023-12-20T14:58:50;7.60;99.90
42261;DHT22;27926;48.062;7.474;2023-12-20T15:01:14;7.50;99.90
42261;DHT22;27926;48.062;7.474;2023-12-20T15:03:39;7.40;99.90
42261;DHT22;27926;48.062;7.474;2023-12-20T15:06:04;7.40;99.90
42261;DHT22;27926;48.062;7.474;2023-12-20T15:08:29;7.30;99.90
42261;DHT22;27926;48.062;7.474;2023-12-20T15:10:53;7.20;99.90
42261;DHT22;27926;48.062;7.474;2023-12-20T15:13:18;7.20;99.90
42261;DHT22;27926;48.062;7.474;2023-12-20T15:15:42;7.10;99.90
42261;DHT22;27926;48.062;7.474;2023-12-20T15:18:07;7.00;99.90
42261;DHT22;27926;48.062;7.474;2023-12-20T15:20:31;6.90;99.90
42261;DHT22;27926;48.062;7.474;2023-12-20T15:22:58;6.70;99.90
42261;DHT22;27926;48.062;7.474;2023-12-20T15:25:28;6.60;99.90
42261;DHT22;27926;48.062;7.474;2023-12-20T15:27:53;6.50;99.90
42261;DHT22;27926;48.062;7.474;2023-12-20T15:30:18;6.40;99.90
42261;DHT22;27926;48.062;7.474;2023-12-20T15:32:43;6.30;99.90